Time;durP1;ratioP1;P1;durP2;ratioP2;P2;SDS_P1;SDS_P2;PMS_P1;PMS_P2;Temp;Humidity;BMP_temperature;BMP_pressure;BME280_temperature;BME280_humidity;BME280_pressure;Samples;Min_cycle;Max_cycle;Signal;HPM_P1;HPM_P2
2023/04/09 00:02:11;;;;;;;1999.90;999.90;;;9.70;99.90;;;;;;5049027;28;20818;-72
2023/04/09 00:04:37;;;;;;;1999.90;999.90;;;9.70;99.90;;;;;;5035227;28;20033;-73
2023/04/09 00:07:02;;;;;;;1999.90;999.90;;;9.70;99.90;;;;;;5038171;28;20078;-82
2023/04/09 00:09:28;;;;;;;1999.90;999.90;;;9.70;99.90;;;;;;5054520;28;20480;-82
2023/04/09 00:11:55;;;;;;;1999.90;999.90;;;9.70;99.90;;;;;;5055017;28;20048;-80
2023/04/09 00:14:20;;;;;;;1999.90;999.90;;;9.70;99.90;;;;;;5054229;28;20021;-82
2023/04/09 00:16:46;;;;;;;1999.90;999.90;;;9.70;99.90;;;;;;5054850;28;20052;-73
2023/04/09 00:19:11;;;;;;;1999.90;999.90;;;9.70;99.90;;;;;;5054793;28;20067;-73
2023/04/09 00:21:37;;;;;;;1999.90;999.90;;;9.70;99.90;;;;;;5054597;28;20384;-73
2023/04/09 00:24:04;;;;;;;1999.90;999.90;;;9.70;99.90;;;;;;5054537;28;20064;-82
2023/04/09 00:26:30;;;;;;;1999.90;999.90;;;9.70;99.90;;;;;;5054866;28;20021;-72
2023/04/09 00:28:56;;;;;;;1999.90;999.90;;;9.60;99.90;;;;;;5053357;28;20025;-73
2023/04/09 00:31:21;;;;;;;1999.90;999.90;;;9.60;99.90;;;;;;5054627;28;20099;-73
2023/04/09 00:33:47;;;;;;;1999.90;999.90;;;9.60;99.90;;;;;;5054796;28;20036;-73
2023/04/09 00:36:13;;;;;;;1999.90;999.90;;;9.60;99.90;;;;;;5054492;28;20138;-82
2023/04/09 00:38:38;;;;;;;1999.90;999.90;;;9.50;99.90;;;;;;5054333;28;20057;-82
2023/04/09 00:41:04;;;;;;;1999.90;999.90;;;9.50;99.90;;;;;;5054380;28;20052;-73
2023/04/09 00:43:30;;;;;;;1999.90;999.90;;;9.50;99.90;;;;;;5054293;28;20033;-73
2023/04/09 00:45:57;;;;;;;1999.90;999.90;;;9.50;99.90;;;;;;5054443;28;20547;-82
2023/04/09 00:48:22;;;;;;;1999.90;999.90;;;9.50;99.90;;;;;;5054562;28;20115;-73
2023/04/09 00:50:48;;;;;;;1999.90;999.90;;;9.40;99.90;;;;;;5054505;28;20496;-82
2023/04/09 00:53:15;;;;;;;1999.90;999.90;;;9.40;99.90;;;;;;5054039;28;20473;-73
2023/04/09 00:55:40;;;;;;;1999.90;999.90;;;9.40;99.90;;;;;;5054183;28;20036;-73
2023/04/09 00:58:07;;;;;;;1999.90;999.90;;;9.40;99.90;;;;;;5054102;28;20029;-82
2023/04/09 01:00:33;;;;;;;1999.90;999.90;;;9.30;99.90;;;;;;5054252;28;20108;-73
2023/04/09 01:02:59;;;;;;;1999.90;999.90;;;9.30;99.90;;;;;;5041246;28;20568;-82
2023/04/09 01:05:37;;;;;;;1999.90;999.90;;;9.30;99.90;;;;;;5033971;28;20060;-73
2023/04/09 01:08:11;;;;;;;1999.90;999.90;;;9.30;99.90;;;;;;5045555;28;20021;-73
2023/04/09 01:10:51;;;;;;;;;;;9.30;99.90;;;;;;5054132;28;20025;-73
2023/04/09 01:13:31;;;;;;;1999.90;999.90;;;9.30;99.90;;;;;;5053656;28;19912;-82
2023/04/09 01:16:00;;;;;;;1999.90;999.90;;;9.20;99.90;;;;;;5052967;28;20099;-82
2023/04/09 01:18:41;;;;;;;1999.90;999.90;;;9.20;99.90;;;;;;5053036;28;20032;-73
2023/04/09 01:21:17;;;;;;;1999.90;999.90;;;9.20;99.90;;;;;;5053918;28;20396;-73
2023/04/09 01:24:18;;;;;;;1999.90;999.90;;;9.20;99.90;;;;;;5033818;28;20104;-82
2023/04/09 01:27:02;;;;;;;1999.90;999.90;;;9.20;99.90;;;;;;5033656;28;20017;-82
2023/04/09 01:29:32;;;;;;;1999.90;999.90;;;9.20;99.90;;;;;;5033272;28;20057;-73
2023/04/09 01:31:59;;;;;;;1999.90;999.90;;;9.20;99.90;;;;;;5033545;28;20034;-73
2023/04/09 01:34:26;;;;;;;1999.90;999.90;;;9.10;99.90;;;;;;5033886;28;20022;-82
2023/04/09 01:36:57;;;;;;;1999.90;999.90;;;9.20;99.90;;;;;;5033152;28;20028;-82
2023/04/09 01:39:23;;;;;;;1999.90;999.90;;;9.10;99.90;;;;;;5033434;28;20032;-82
2023/04/09 01:41:50;;;;;;;1999.90;999.90;;;9.10;99.90;;;;;;5032702;28;20396;-81
2023/04/09 01:44:16;;;;;;;1999.90;999.90;;;9.10;99.90;;;;;;5052981;28;20484;-73
2023/04/09 01:46:42;;;;;;;1999.90;999.90;;;9.00;99.90;;;;;;5053409;28;20356;-72
2023/04/09 01:49:09;;;;;;;1999.90;999.90;;;9.00;99.90;;;;;;5053085;28;20053;-80
2023/04/09 01:51:35;;;;;;;1999.90;999.90;;;9.00;99.90;;;;;;5051998;28;20021;-82
2023/04/09 01:54:01;;;;;;;1999.90;999.90;;;9.00;99.90;;;;;;5053077;28;20025;-82
2023/04/09 01:56:27;;;;;;;1999.90;999.90;;;9.00;99.90;;;;;;5053383;28;20155;-82
2023/04/09 01:58:53;;;;;;;1999.90;999.90;;;9.00;99.90;;;;;;5053099;28;20075;-73
2023/04/09 02:01:57;;;;;;;1999.90;999.90;;;8.90;99.90;;;;;;5053176;28;20495;-73
2023/04/09 02:04:31;;;;;;;1999.90;999.90;;;9.00;99.90;;;;;;5032280;28;20040;-82
2023/04/09 02:07:14;;;;;;;1999.90;999.90;;;9.00;99.90;;;;;;5035773;28;20025;-82
2023/04/09 02:09:43;;;;;;;1999.90;999.90;;;9.00;99.90;;;;;;5053166;28;20024;-82
2023/04/09 02:12:13;;;;;;;1999.90;999.90;;;9.00;99.90;;;;;;5053215;28;20411;-73
2023/04/09 02:14:40;;;;;;;1999.90;999.90;;;9.00;99.90;;;;;;5052196;28;20032;-73
2023/04/09 02:17:05;;;;;;;1999.90;999.90;;;9.00;99.90;;;;;;5052727;28;20024;-82
2023/04/09 02:19:57;;;;;;;1999.90;999.90;;;9.00;99.90;;;;;;5053031;28;20033;-81
2023/04/09 02:22:23;;;;;;;1999.90;999.90;;;9.00;99.90;;;;;;5051626;28;20126;-82
2023/04/09 02:24:48;;;;;;;1999.90;999.90;;;8.90;99.90;;;;;;5052830;28;20033;-73
2023/04/09 02:27:15;;;;;;;1999.90;999.90;;;8.90;99.90;;;;;;5052648;28;20075;-73
2023/04/09 02:29:41;;;;;;;1999.90;999.90;;;8.90;99.90;;;;;;5052747;28;20021;-73
2023/04/09 02:32:07;;;;;;;1999.90;999.90;;;8.90;99.90;;;;;;5052953;28;20017;-82
2023/04/09 02:34:32;;;;;;;1999.90;999.90;;;8.90;99.90;;;;;;5052839;28;20082;-81
2023/04/09 02:36:58;;;;;;;1999.90;999.90;;;8.80;99.90;;;;;;5052795;28;20387;-73
2023/04/09 02:39:24;;;;;;;1999.90;999.90;;;8.80;99.90;;;;;;5052582;28;20033;-73
2023/04/09 02:41:49;;;;;;;1999.90;999.90;;;8.80;99.90;;;;;;5051238;28;20032;-81
2023/04/09 02:44:15;;;;;;;1999.90;999.90;;;8.70;99.90;;;;;;5052666;28;20051;-82
2023/04/09 02:46:41;;;;;;;1999.90;999.90;;;8.70;99.90;;;;;;5052744;28;20032;-82
2023/04/09 02:49:06;;;;;;;1999.90;999.90;;;8.60;99.90;;;;;;5052653;28;20132;-82
2023/04/09 02:51:35;;;;;;;1999.90;999.90;;;8.60;99.90;;;;;;5052400;28;20104;-73
2023/04/09 02:54:01;;;;;;;1999.90;999.90;;;8.60;99.90;;;;;;5053931;28;20040;-81
2023/04/09 02:56:27;;;;;;;1999.90;999.90;;;8.50;99.90;;;;;;5056495;28;20021;-82
2023/04/09 02:58:52;;;;;;;1999.90;999.90;;;8.60;99.90;;;;;;5056550;28;20498;-72
2023/04/09 03:01:19;;;;;;;1999.90;999.90;;;8.50;99.90;;;;;;5056836;28;20025;-82
2023/04/09 03:03:45;;;;;;;1999.90;999.90;;;8.50;99.90;;;;;;5037107;28;20134;-73
2023/04/09 03:06:11;;;;;;;1999.90;999.90;;;8.50;99.90;;;;;;5035013;28;20033;-72
2023/04/09 03:08:37;;;;;;;1999.90;999.90;;;8.50;99.90;;;;;;5052473;28;20025;-81
2023/04/09 03:11:02;;;;;;;1999.90;999.90;;;8.50;99.90;;;;;;5056409;28;20029;-73
2023/04/09 03:13:28;;;;;;;1999.90;999.90;;;8.50;99.90;;;;;;5056427;28;20459;-82
2023/04/09 03:15:54;;;;;;;1999.90;999.90;;;8.50;99.90;;;;;;5055262;28;20033;-73
2023/04/09 03:18:20;;;;;;;1999.90;999.90;;;8.50;99.90;;;;;;5056051;28;20032;-73
2023/04/09 03:20:45;;;;;;;1999.90;999.90;;;8.60;99.90;;;;;;5056221;28;20025;-73
2023/04/09 03:23:11;;;;;;;1999.90;999.90;;;8.60;99.90;;;;;;5055883;28;20519;-81
2023/04/09 03:25:37;;;;;;;1999.90;999.90;;;8.50;99.90;;;;;;5055995;28;20049;-82
2023/04/09 03:28:03;;;;;;;1999.90;999.90;;;8.60;99.90;;;;;;5055584;28;20029;-73
2023/04/09 03:30:29;;;;;;;1999.90;999.90;;;8.50;99.90;;;;;;5055629;28;20029;-82
2023/04/09 03:32:55;;;;;;;1999.90;999.90;;;8.50;99.90;;;;;;5056111;28;20020;-73
2023/04/09 03:35:20;;;;;;;1999.90;999.90;;;8.40;99.90;;;;;;5055762;28;20025;-82
2023/04/09 03:37:46;;;;;;;1999.90;999.90;;;8.40;99.90;;;;;;5055960;28;20541;-82
2023/04/09 03:40:12;;;;;;;1999.90;999.90;;;8.30;99.90;;;;;;5054055;28;20064;-82
2023/04/09 03:42:38;;;;;;;1999.90;999.90;;;8.20;99.90;;;;;;5055152;28;20033;-73
2023/04/09 03:45:04;;;;;;;1999.90;999.90;;;8.20;99.90;;;;;;5054405;28;20456;-82
2023/04/09 03:47:31;;;;;;;1999.90;999.90;;;8.10;99.90;;;;;;5055911;28;20059;-82
2023/04/09 03:49:57;;;;;;;1999.90;999.90;;;8.10;99.90;;;;;;5053888;28;20045;-81
2023/04/09 03:52:22;;;;;;;1999.90;999.90;;;8.00;99.90;;;;;;5055309;28;20488;-82
2023/04/09 03:54:48;;;;;;;1999.90;999.90;;;8.00;99.90;;;;;;5055078;28;20052;-73
2023/04/09 03:57:14;;;;;;;1999.90;999.90;;;8.00;99.90;;;;;;5055132;28;20021;-73
2023/04/09 03:59:39;;;;;;;1999.90;999.90;;;8.00;99.90;;;;;;5055379;28;20052;-81
2023/04/09 04:02:05;;;;;;;1999.90;999.90;;;8.00;99.90;;;;;;5055495;28;20432;-82
2023/04/09 04:04:30;;;;;;;1999.90;999.90;;;8.00;99.90;;;;;;5054853;28;20035;-82
2023/04/09 04:06:56;;;;;;;1999.90;999.90;;;8.00;99.90;;;;;;5054538;28;20531;-82
2023/04/09 04:09:22;;;;;;;1999.90;999.90;;;8.00;99.90;;;;;;5053886;28;20079;-82
2023/04/09 04:11:47;;;;;;;1999.90;999.90;;;8.00;99.90;;;;;;5055160;28;20029;-73
2023/04/09 04:14:13;;;;;;;1999.90;999.90;;;8.00;99.90;;;;;;5055041;28;20017;-82
2023/04/09 04:16:40;;;;;;;1999.90;999.90;;;8.00;99.90;;;;;;5053796;28;20025;-73
2023/04/09 04:19:05;;;;;;;1999.90;999.90;;;8.00;99.90;;;;;;5055042;28;20021;-73
2023/04/09 04:21:31;;;;;;;1999.90;999.90;;;8.00;99.90;;;;;;5054978;28;20425;-82
2023/04/09 04:23:57;;;;;;;1999.90;999.90;;;8.00;99.90;;;;;;5055019;28;20099;-73
2023/04/09 04:26:22;;;;;;;1999.90;999.90;;;8.00;99.90;;;;;;5054893;28;20104;-82
2023/04/09 04:28:48;;;;;;;1999.90;999.90;;;8.00;99.90;;;;;;5054915;28;20033;-82
2023/04/09 04:31:14;;;;;;;1999.90;999.90;;;7.90;99.90;;;;;;5054703;28;20096;-82
2023/04/09 04:33:40;;;;;;;1999.90;999.90;;;8.00;99.90;;;;;;5054813;28;20025;-73
2023/04/09 04:36:08;;;;;;;1999.90;999.90;;;7.90;99.90;;;;;;5054914;28;20399;-73
2023/04/09 04:38:34;;;;;;;1999.90;999.90;;;7.90;99.90;;;;;;5054883;28;20025;-82
2023/04/09 04:41:00;;;;;;;1999.90;999.90;;;7.80;99.90;;;;;;5054464;28;20488;-82
2023/04/09 04:43:26;;;;;;;1999.90;999.90;;;7.80;99.90;;;;;;5054510;28;20114;-82
2023/04/09 04:45:53;;;;;;;1999.90;999.90;;;7.80;99.90;;;;;;5054426;28;20071;-81
2023/04/09 04:48:18;;;;;;;1999.90;999.90;;;7.80;99.90;;;;;;5054752;28;20053;-73
2023/04/09 04:50:44;;;;;;;1999.90;999.90;;;7.70;99.90;;;;;;5054554;28;20025;-73
2023/04/09 04:53:10;;;;;;;1999.90;999.90;;;7.70;99.90;;;;;;5054138;28;20025;-81
2023/04/09 04:55:36;;;;;;;1999.90;999.90;;;7.70;99.90;;;;;;5054356;28;20391;-80
2023/04/09 04:58:01;;;;;;;1999.90;999.90;;;7.60;99.90;;;;;;5054246;28;20028;-73
2023/04/09 05:00:27;;;;;;;1999.90;999.90;;;7.60;99.90;;;;;;5054279;28;20405;-73
2023/04/09 05:02:53;;;;;;;1999.90;999.90;;;7.50;99.90;;;;;;5054579;28;20075;-73
2023/04/09 05:05:18;;;;;;;1999.90;999.90;;;7.50;99.90;;;;;;5054219;28;20052;-82
2023/04/09 05:07:44;;;;;;;1999.90;999.90;;;7.50;99.90;;;;;;5054195;28;20021;-82
2023/04/09 05:10:10;;;;;;;1999.90;999.90;;;7.50;99.90;;;;;;5053887;28;20377;-81
2023/04/09 05:12:35;;;;;;;1999.90;999.90;;;7.50;99.90;;;;;;5053964;28;20372;-73
2023/04/09 05:15:01;;;;;;;1999.90;999.90;;;7.40;99.90;;;;;;5053791;28;20021;-73
2023/04/09 05:17:26;;;;;;;1999.90;999.90;;;7.50;99.90;;;;;;5053103;28;20116;-73
2023/04/09 05:19:52;;;;;;;1999.90;999.90;;;7.50;99.90;;;;;;5053815;28;20036;-81
2023/04/09 05:22:18;;;;;;;1999.90;999.90;;;7.50;99.90;;;;;;5053988;28;20032;-82
2023/04/09 05:24:44;;;;;;;1999.90;999.90;;;7.40;99.90;;;;;;5053795;28;20044;-73
2023/04/09 05:27:10;;;;;;;1999.90;999.90;;;7.40;99.90;;;;;;5053529;28;20484;-72
2023/04/09 05:29:35;;;;;;;1999.90;999.90;;;7.40;99.90;;;;;;5053589;28;20021;-73
2023/04/09 05:32:01;;;;;;;1999.90;999.90;;;7.40;99.90;;;;;;5053377;28;20476;-82
2023/04/09 05:34:27;;;;;;;1999.90;999.90;;;7.30;99.90;;;;;;5054125;28;20025;-73
2023/04/09 05:36:53;;;;;;;1999.90;999.90;;;7.30;99.90;;;;;;5053632;28;20029;-81
2023/04/09 05:39:18;;;;;;;1999.90;999.90;;;7.30;99.90;;;;;;5053532;28;20094;-73
2023/04/09 05:41:45;;;;;;;1999.90;999.90;;;7.30;99.90;;;;;;5053517;28;20037;-72
2023/04/09 05:44:11;;;;;;;1999.90;999.90;;;7.30;99.90;;;;;;5051875;28;20060;-81
2023/04/09 05:46:37;;;;;;;1999.90;999.90;;;7.30;99.90;;;;;;5053562;28;20060;-82
2023/04/09 05:49:03;;;;;;;1999.90;999.90;;;7.30;99.90;;;;;;5053522;28;20567;-82
2023/04/09 05:51:28;;;;;;;1999.90;999.90;;;7.30;99.90;;;;;;5053452;28;20067;-73
2023/04/09 05:53:54;;;;;;;1999.90;999.90;;;7.30;99.90;;;;;;5053045;28;20442;-72
2023/04/09 05:56:22;;;;;;;1999.90;999.90;;;7.40;99.90;;;;;;5053254;28;20033;-81
2023/04/09 05:58:48;;;;;;;1999.90;999.90;;;7.40;99.90;;;;;;5053412;28;20614;-82
2023/04/09 06:01:14;;;;;;;1999.90;999.90;;;7.50;99.90;;;;;;5053562;28;20063;-81
2023/04/09 06:03:40;;;;;;;1999.90;999.90;;;7.50;99.90;;;;;;5053149;28;20480;-82
2023/04/09 06:06:05;;;;;;;1999.90;999.90;;;7.60;99.90;;;;;;5053212;28;20476;-82
2023/04/09 06:08:31;;;;;;;1999.90;999.90;;;7.70;99.90;;;;;;5053066;28;20100;-73
2023/04/09 06:10:57;;;;;;;1999.90;999.90;;;7.80;99.90;;;;;;5053561;28;20364;-82
2023/04/09 06:13:23;;;;;;;1999.90;999.90;;;7.90;99.90;;;;;;5051888;28;20060;-81
2023/04/09 06:15:48;;;;;;;1999.90;999.90;;;8.00;99.90;;;;;;5053113;28;20032;-73
2023/04/09 06:18:14;;;;;;;1999.90;999.90;;;8.10;99.90;;;;;;5051169;28;20021;-77
2023/04/09 06:20:40;;;;;;;1999.90;999.90;;;8.20;99.90;;;;;;5053079;28;20381;-73
2023/04/09 06:23:06;;;;;;;1999.90;999.90;;;8.30;99.90;;;;;;5053205;28;20024;-73
2023/04/09 06:25:32;;;;;;;1999.90;999.90;;;8.40;99.90;;;;;;5053028;28;20173;-82
2023/04/09 06:27:57;;;;;;;1999.90;999.90;;;8.50;99.90;;;;;;5052623;28;20086;-82
2023/04/09 06:30:23;;;;;;;1999.90;999.90;;;8.60;99.90;;;;;;5056952;28;20074;-73
2023/04/09 06:32:50;;;;;;;1999.90;999.90;;;8.70;99.90;;;;;;5057072;28;20070;-72
2023/04/09 06:35:15;;;;;;;1999.90;999.90;;;8.80;99.90;;;;;;5056940;28;20079;-82
2023/04/09 06:37:41;;;;;;;1999.90;999.90;;;8.90;99.90;;;;;;5057174;28;20025;-82
2023/04/09 06:40:07;;;;;;;1999.90;999.90;;;9.00;99.90;;;;;;5056658;28;20036;-73
2023/04/09 06:42:33;;;;;;;1999.90;999.90;;;9.20;99.90;;;;;;5056751;28;20048;-82
2023/04/09 06:44:58;;;;;;;1999.90;999.90;;;9.30;99.90;;;;;;5056967;28;20638;-73
2023/04/09 06:47:24;;;;;;;1999.90;999.90;;;9.40;99.90;;;;;;5056838;28;20108;-73
2023/04/09 06:49:50;;;;;;;1999.90;999.90;;;9.40;99.90;;;;;;5056761;28;20053;-79
2023/04/09 06:52:15;;;;;;;1999.90;999.90;;;9.50;99.90;;;;;;5055326;28;20029;-82
2023/04/09 06:54:41;;;;;;;1999.90;999.90;;;9.50;99.90;;;;;;5056601;28;20021;-82
2023/04/09 06:57:08;;;;;;;1999.90;999.90;;;9.50;99.90;;;;;;5056481;28;20025;-73
2023/04/09 06:59:33;;;;;;;1999.90;999.90;;;9.40;99.90;;;;;;5056421;28;20494;-73
2023/04/09 07:01:59;;;;;;;1999.90;999.90;;;9.30;99.90;;;;;;5056778;28;20029;-82
2023/04/09 07:04:25;;;;;;;1999.90;999.90;;;9.20;99.90;;;;;;5056648;28;20063;-82
2023/04/09 07:06:53;;;;;;;1999.90;999.90;;;9.10;99.90;;;;;;5056344;28;20025;-82
2023/04/09 07:09:19;;;;;;;1999.90;999.90;;;9.00;99.90;;;;;;5056567;28;20100;-81
2023/04/09 07:11:45;;;;;;;1999.90;999.90;;;9.00;99.90;;;;;;5054952;28;20542;-73
2023/04/09 07:14:10;;;;;;;1999.90;999.90;;;9.00;99.90;;;;;;5056235;28;20025;-73
2023/04/09 07:16:36;;;;;;;1999.90;999.90;;;9.00;99.90;;;;;;5056206;28;20376;-82
2023/04/09 07:19:02;;;;;;;1999.90;999.90;;;9.00;99.90;;;;;;5054868;28;20033;-82
2023/04/09 07:21:27;;;;;;;1999.90;999.90;;;9.10;99.90;;;;;;5056319;28;20068;-82
2023/04/09 07:23:53;;;;;;;1999.90;999.90;;;9.20;99.90;;;;;;5055497;28;20495;-73
2023/04/09 07:26:19;;;;;;;1999.90;999.90;;;9.50;99.90;;;;;;5056339;28;20029;-73
2023/04/09 07:28:45;;;;;;;1999.90;999.90;;;9.80;99.90;;;;;;5055800;28;20021;-82
2023/04/09 07:31:10;;;;;;;1999.90;999.90;;;10.00;99.90;;;;;;5055978;28;20036;-73
2023/04/09 07:33:36;;;;;;;1999.90;999.90;;;10.30;99.90;;;;;;5055804;28;20021;-82
2023/04/09 07:36:02;;;;;;;1999.90;999.90;;;10.70;99.90;;;;;;5055805;28;20491;-73
2023/04/09 07:38:29;;;;;;;1999.90;999.90;;;11.10;99.90;;;;;;5055870;28;20036;-73
2023/04/09 07:40:54;;;;;;;1999.90;999.90;;;11.40;99.90;;;;;;5054448;28;20029;-82
2023/04/09 07:43:20;;;;;;;1999.90;999.90;;;11.70;99.90;;;;;;5055549;28;20035;-82
2023/04/09 07:45:48;;;;;;;1999.90;999.90;;;11.90;99.90;;;;;;5055797;28;20029;-82
2023/04/09 07:48:14;;;;;;;1999.90;999.90;;;12.10;99.90;;;;;;5055689;28;20024;-83
2023/04/09 07:50:39;;;;;;;1999.90;999.90;;;12.10;99.90;;;;;;5055884;28;20033;-73
2023/04/09 07:53:05;;;;;;;1999.90;999.90;;;12.10;99.90;;;;;;5055313;28;20021;-73
2023/04/09 07:55:30;;;;;;;1999.90;999.90;;;12.50;99.90;;;;;;5055405;28;20029;-82
2023/04/09 07:57:56;;;;;;;1999.90;999.90;;;13.50;99.90;;;;;;5055333;28;20049;-82
2023/04/09 08:00:22;;;;;;;1999.90;999.90;;;13.50;99.90;;;;;;5055369;28;20103;-73
2023/04/09 08:02:47;;;;;;;1999.90;999.90;;;14.70;99.90;;;;;;5055289;28;20029;-73
2023/04/09 08:05:13;;;;;;;1999.90;999.90;;;16.60;99.90;;;;;;5055428;28;20125;-73
2023/04/09 08:07:39;;;;;;;1999.90;999.90;;;18.40;99.90;;;;;;5055219;28;20025;-82
2023/04/09 08:10:05;;;;;;;1999.90;999.90;;;20.40;99.90;;;;;;5055087;28;20025;-83
2023/04/09 08:12:31;;;;;;;1999.90;999.90;;;22.10;99.90;;;;;;5055434;28;20074;-83
2023/04/09 08:14:57;;;;;;;1999.90;999.90;;;23.10;97.70;;;;;;5055126;28;20426;-73
2023/04/09 08:17:23;;;;;;;1999.90;999.90;;;24.00;97.10;;;;;;5055004;28;20025;-74
2023/04/09 08:19:49;;;;;;;1999.90;999.90;;;24.30;95.50;;;;;;5054565;28;20040;-83
2023/04/09 08:22:14;;;;;;;1999.90;999.90;;;24.10;95.00;;;;;;5055189;28;20029;-74
2023/04/09 08:24:42;;;;;;;1999.90;999.90;;;23.10;96.50;;;;;;5054845;28;20032;-74
2023/04/09 08:27:08;;;;;;;1999.90;999.90;;;23.90;95.30;;;;;;5055201;28;20029;-83
2023/04/09 08:29:33;;;;;;;1999.90;999.90;;;24.90;94.30;;;;;;5054969;28;20151;-75
2023/04/09 08:31:59;;;;;;;1999.90;999.90;;;25.70;92.90;;;;;;5055114;28;20079;-74
2023/04/09 08:34:25;;;;;;;1999.90;999.90;;;26.30;92.10;;;;;;5055019;28;20029;-84
2023/04/09 08:36:50;;;;;;;1999.90;999.90;;;26.40;91.10;;;;;;5053626;28;20053;-84
2023/04/09 08:39:19;;;;;;;1999.90;999.90;;;27.00;90.60;;;;;;5054570;28;20025;-84
2023/04/09 08:41:47;;;;;;;1999.90;999.90;;;26.70;90.40;;;;;;5055013;28;20021;-75
2023/04/09 08:44:12;;;;;;;1999.90;999.90;;;26.60;90.20;;;;;;5054452;28;20024;-75
2023/04/09 08:46:38;;;;;;;1999.90;999.90;;;26.50;90.30;;;;;;5054749;28;20043;-75
2023/04/09 08:49:04;;;;;;;1999.90;999.90;;;26.90;90.20;;;;;;5053703;28;20049;-85
2023/04/09 08:51:30;;;;;;;1999.90;999.90;;;27.00;91.70;;;;;;5053495;28;20025;-75
2023/04/09 08:53:58;;;;;;;1999.90;999.90;;;26.00;91.10;;;;;;5054139;28;20025;-84
2023/04/09 08:56:25;;;;;;;1999.90;999.90;;;27.20;91.00;;;;;;5054723;28;20151;-75
2023/04/09 08:58:51;;;;;;;1999.90;999.90;;;27.70;89.80;;;;;;5054370;28;20049;-75
2023/04/09 09:01:27;;;;;;;1999.90;999.90;;;28.20;88.10;;;;;;5054794;28;20032;-73
2023/04/09 09:03:54;;;;;;;1999.90;999.90;;;28.60;87.10;;;;;;5054185;28;20032;-72
2023/04/09 09:06:21;;;;;;;1999.90;999.90;;;28.50;87.00;;;;;;5054556;28;20484;-74
2023/04/09 09:09:05;;;;;;;1999.90;999.90;;;28.60;88.10;;;;;;5053964;28;20032;-73
2023/04/09 09:11:31;;;;;;;1999.90;999.90;;;28.90;86.50;;;;;;5054653;28;20484;-73
2023/04/09 09:14:02;;;;;;;1999.90;999.90;;;29.10;86.90;;;;;;5054185;28;20104;-81
2023/04/09 09:16:28;;;;;;;1999.90;999.90;;;28.30;86.30;;;;;;5053818;28;20082;-82
2023/04/09 09:18:55;;;;;;;1999.90;999.90;;;28.50;86.40;;;;;;5053733;28;20056;-72
2023/04/09 09:21:21;;;;;;;1999.90;999.90;;;28.40;90.00;;;;;;5053941;28;20045;-73
2023/04/09 09:23:49;;;;;;;1999.90;999.90;;;28.50;90.60;;;;;;5054114;28;20373;-73
2023/04/09 09:26:21;;;;;;;1999.90;999.90;;;28.40;88.20;;;;;;5053734;28;20028;-82
2023/04/09 09:28:48;;;;;;;1999.90;999.90;;;29.30;85.80;;;;;;5053858;28;20021;-82
2023/04/09 09:31:15;;;;;;;1999.90;999.90;;;29.70;86.40;;;;;;5053877;28;20071;-82
2023/04/09 09:33:41;;;;;;;1999.90;999.90;;;29.10;84.90;;;;;;5053856;28;20017;-73
2023/04/09 09:36:10;;;;;;;1999.90;999.90;;;29.30;85.10;;;;;;5053709;28;20033;-73
2023/04/09 09:38:53;;;;;;;1999.90;999.90;;;28.90;85.40;;;;;;5053777;28;20407;-73
2023/04/09 09:41:19;;;;;;;1999.90;999.90;;;28.90;86.70;;;;;;5053704;28;20143;-83
2023/04/09 09:43:45;;;;;;;1999.90;999.90;;;28.30;87.50;;;;;;5053489;28;20036;-81
2023/04/09 09:46:11;;;;;;;1999.90;999.90;;;28.50;86.90;;;;;;5053082;28;20400;-72
2023/04/09 09:48:37;;;;;;;1999.90;999.90;;;28.70;88.00;;;;;;5053593;28;20041;-73
2023/04/09 09:51:09;;;;;;;1999.90;999.90;;;29.20;88.10;;;;;;5053501;28;20025;-83
2023/04/09 09:53:40;;;;;;;1999.90;999.90;;;29.40;85.70;;;;;;5053049;28;20059;-82
2023/04/09 09:56:09;;;;;;;1999.90;999.90;;;28.10;83.80;;;;;;5053490;28;20392;-82
2023/04/09 09:58:44;;;;;;;1999.90;999.90;;;27.90;86.90;;;;;;5053396;28;20017;-73
2023/04/09 10:01:12;;;;;;;1999.90;999.90;;;28.30;87.30;;;;;;5053492;28;20024;-73
2023/04/09 10:03:41;;;;;;;1999.90;999.90;;;27.90;88.40;;;;;;5052537;28;20029;-82
2023/04/09 10:06:08;;;;;;;1999.90;999.90;;;28.20;87.00;;;;;;5053005;28;20029;-73
2023/04/09 10:08:36;;;;;;;1999.90;999.90;;;28.20;88.50;;;;;;5051896;28;20028;-73
2023/04/09 10:11:05;;;;;;;1999.90;999.90;;;28.20;90.00;;;;;;5053322;28;20498;-73
2023/04/09 10:13:39;;;;;;;1999.90;999.90;;;28.20;88.40;;;;;;5053364;28;20021;-72
2023/04/09 10:16:06;;;;;;;1999.90;999.90;;;27.30;90.10;;;;;;5051645;28;20472;-74
2023/04/09 10:18:32;;;;;;;1999.90;999.90;;;26.30;90.60;;;;;;5052508;28;20032;-85
2023/04/09 10:21:13;;;;;;;1999.90;999.90;;;25.80;91.10;;;;;;5052453;28;20105;-85
2023/04/09 10:23:43;;;;;;;1999.90;999.90;;;24.90;90.30;;;;;;5053020;28;20021;-85
2023/04/09 10:26:09;;;;;;;1999.90;999.90;;;24.20;93.70;;;;;;5053005;28;20044;-75
2023/04/09 10:28:37;;;;;;;1999.90;999.90;;;23.70;94.80;;;;;;5053086;28;20032;-74
2023/04/09 10:31:05;;;;;;;1999.90;999.90;;;23.60;95.20;;;;;;5053338;28;20105;-85
2023/04/09 10:33:31;;;;;;;1999.90;999.90;;;23.70;94.60;;;;;;5055236;28;20017;-83
2023/04/09 10:36:03;;;;;;;1999.90;999.90;;;23.40;95.00;;;;;;5077876;28;20028;-76
2023/04/09 10:38:47;;;;;;;1999.90;999.90;;;23.30;94.40;;;;;;5065918;28;20112;-74
2023/04/09 10:41:21;;;;;;;1999.90;999.90;;;23.20;94.90;;;;;;5052883;28;20503;-74
2023/04/09 10:43:47;;;;;;;1999.90;999.90;;;22.90;94.70;;;;;;5072433;28;20037;-83
2023/04/09 10:46:49;;;;;;;1999.90;999.90;;;23.00;94.70;;;;;;5052129;28;20055;-84
2023/04/09 10:49:20;;;;;;;1999.90;999.90;;;23.40;94.60;;;;;;5030798;28;20042;-83
2023/04/09 10:51:53;;;;;;;1999.90;999.90;;;23.00;93.00;;;;;;5030663;28;20030;-74
2023/04/09 10:54:34;;;;;;;1999.90;999.90;;;22.80;93.20;;;;;;5030423;28;20520;-83
2023/04/09 10:57:14;;;;;;;1999.90;999.90;;;22.50;95.10;;;;;;5030678;28;20516;-83
2023/04/09 10:59:51;;;;;;;1999.90;999.90;;;22.20;95.00;;;;;;5030712;28;20030;-83
2023/04/09 11:02:37;;;;;;;1999.90;999.90;;;22.20;94.70;;;;;;5030351;28;20021;-74
2023/04/09 11:05:23;;;;;;;1999.90;999.90;;;22.60;95.60;;;;;;5014334;28;20053;-74
2023/04/09 11:08:04;;;;;;;1999.90;999.90;;;22.30;95.10;;;;;;5013861;28;20524;-82
2023/04/09 11:10:32;;;;;;;1999.90;999.90;;;22.20;96.20;;;;;;5030758;28;20041;-83
2023/04/09 11:12:58;;;;;;;1999.90;999.90;;;22.00;96.10;;;;;;5030683;28;20127;-83
2023/04/09 11:15:23;;;;;;;1999.90;999.90;;;21.90;96.50;;;;;;5044634;28;20025;-83
2023/04/09 11:17:49;;;;;;;1999.90;999.90;;;22.00;96.80;;;;;;5042448;28;20037;-82
2023/04/09 11:20:22;;;;;;;1999.90;999.90;;;22.20;97.40;;;;;;5033396;28;20021;-74
2023/04/09 11:22:50;;;;;;;1999.90;999.90;;;22.10;94.90;;;;;;5041826;28;20052;-82
2023/04/09 11:25:26;;;;;;;1999.90;999.90;;;21.70;96.10;;;;;;5056150;28;20021;-83
2023/04/09 11:27:53;;;;;;;1999.90;999.90;;;22.30;98.20;;;;;;5055984;28;20371;-81
2023/04/09 11:30:19;;;;;;;1999.90;999.90;;;22.30;98.20;;;;;;5056003;28;20074;-83
2023/04/09 11:32:45;;;;;;;1999.90;999.90;;;22.60;96.10;;;;;;5056026;28;20029;-74
2023/04/09 11:35:19;;;;;;;1999.90;999.90;;;22.30;94.30;;;;;;5054840;28;20134;-82
2023/04/09 11:37:45;;;;;;;1999.90;999.90;;;22.00;94.00;;;;;;5055960;28;20108;-83
2023/04/09 11:40:19;;;;;;;1999.90;999.90;;;22.20;97.90;;;;;;5055707;28;20111;-73
2023/04/09 11:42:45;;;;;;;1999.90;999.90;;;22.20;93.10;;;;;;5055933;28;20028;-73
2023/04/09 11:45:12;;;;;;;1999.90;999.90;;;22.20;96.10;;;;;;5055688;28;20025;-73
2023/04/09 11:47:40;;;;;;;1999.90;999.90;;;22.30;94.80;;;;;;5056006;28;20025;-83
2023/04/09 11:50:08;;;;;;;1999.90;999.90;;;22.60;96.60;;;;;;5055570;28;20120;-73
2023/04/09 11:52:37;;;;;;;1999.90;999.90;;;22.60;95.20;;;;;;5055546;28;20029;-83
2023/04/09 11:55:04;;;;;;;1999.90;999.90;;;23.10;94.60;;;;;;5055640;28;20028;-73
2023/04/09 11:57:42;;;;;;;1999.90;999.90;;;22.80;93.70;;;;;;5055440;28;20017;-73
2023/04/09 12:00:11;;;;;;;1999.90;999.90;;;22.50;94.70;;;;;;5055391;28;20037;-82
2023/04/09 12:02:45;;;;;;;1999.90;999.90;;;22.10;93.00;;;;;;5055501;28;20021;-82
2023/04/09 12:05:19;;;;;;;1999.90;999.90;;;22.00;94.90;;;;;;5054215;28;20025;-82
2023/04/09 12:07:45;;;;;;;1999.90;999.90;;;21.70;95.50;;;;;;5055225;28;20055;-73
2023/04/09 12:10:11;;;;;;;1999.90;999.90;;;21.50;95.50;;;;;;5055243;28;20052;-74